createdAt,value
2019-05-22T00:02:27.233Z,35.45
2019-05-22T00:05:17.058Z,36.08
2019-05-22T00:07:48.954Z,37.50
2019-05-22T00:10:25.437Z,40.83
2019-05-22T00:12:57.215Z,42.27
2019-05-22T00:15:29.758Z,40.67
2019-05-22T00:18:01.547Z,38.08
2019-05-22T00:20:31.801Z,41.55
2019-05-22T00:23:04.127Z,41.25
2019-05-22T00:25:35.721Z,42.90
2019-05-22T00:28:07.344Z,39.88
2019-05-22T00:30:38.914Z,40.52
2019-05-22T00:33:09.912Z,46.65
2019-05-22T00:35:41.559Z,41.98
2019-05-22T00:38:12.309Z,42.62
2019-05-22T00:40:46.768Z,45.23
2019-05-22T00:43:21.226Z,46.80
2019-05-22T00:45:52.718Z,48.87
2019-05-22T00:48:23.941Z,41.08
2019-05-22T00:51:05.483Z,44.25
2019-05-22T00:53:55.486Z,40.73
2019-05-22T00:56:37.158Z,41.70
2019-05-22T00:59:22.119Z,46.95
2019-05-22T01:01:54.405Z,43.20
2019-05-22T01:04:25.910Z,43.73
2019-05-22T01:06:57.983Z,40.20
2019-05-22T01:09:29.553Z,37.50
2019-05-22T01:12:00.780Z,40.45
2019-05-22T01:14:42.300Z,38.65
2019-05-22T01:17:02.830Z,38.42
2019-05-22T01:19:34.594Z,37.80
2019-05-22T01:22:06.486Z,37.60
2019-05-22T01:24:37.983Z,38.92
2019-05-22T01:27:10.056Z,38.05
2019-05-22T01:29:40.370Z,43.58
2019-05-22T01:32:20.914Z,34.88
2019-05-22T01:34:51.812Z,38.73
2019-05-22T01:37:22.443Z,35.73
2019-05-22T01:39:54.278Z,35.50
2019-05-22T01:42:26.915Z,36.68
2019-05-22T01:45:05.558Z,39.42
2019-05-22T01:47:43.001Z,39.10
2019-05-22T01:50:18.847Z,40.05
2019-05-22T01:52:48.701Z,37.08
2019-05-22T01:55:20.221Z,37.58
2019-05-22T01:57:51.342Z,39.45
2019-05-22T02:00:21.770Z,41.20
2019-05-22T02:02:52.408Z,37.35
2019-05-22T02:05:23.041Z,43.25
2019-05-22T02:07:54.490Z,38.20
2019-05-22T02:10:33.662Z,45.15
2019-05-22T02:13:03.531Z,37.38
2019-05-22T02:15:35.332Z,41.45
2019-05-22T02:18:11.039Z,37.42
2019-05-22T02:20:42.509Z,37.50
2019-05-22T02:23:12.666Z,49.35
2019-05-22T02:25:42.599Z,45.38
2019-05-22T02:28:12.624Z,38.65
2019-05-22T02:30:44.513Z,41.05
2019-05-22T02:33:14.467Z,43.10
2019-05-22T02:35:45.714Z,39.95
2019-05-22T02:38:16.963Z,37.45
2019-05-22T02:40:47.550Z,32.73
2019-05-22T02:43:18.752Z,33.65
2019-05-22T02:45:49.883Z,30.80
2019-05-22T02:48:21.402Z,32.35
2019-05-22T02:50:52.411Z,33.83
2019-05-22T02:53:22.741Z,29.32
2019-05-22T02:55:53.334Z,28.55
2019-05-22T02:58:24.440Z,28.23
2019-05-22T03:01:00.195Z,27.10
2019-05-22T03:03:32.263Z,32.08
2019-05-22T03:06:04.339Z,29.37
2019-05-22T03:08:54.302Z,35.20
2019-05-22T03:11:25.054Z,33.83
2019-05-22T03:13:59.785Z,33.00
2019-05-22T03:16:50.028Z,29.18
2019-05-22T03:19:32.555Z,30.77
2019-05-22T03:22:25.182Z,30.80
2019-05-22T03:24:56.857Z,34.90
2019-05-22T03:27:40.533Z,33.00
2019-05-22T03:30:22.280Z,32.53
2019-05-22T03:32:53.914Z,33.88
2019-05-22T03:35:25.991Z,38.63
2019-05-22T03:37:57.586Z,35.98
2019-05-22T03:40:28.889Z,38.53
2019-05-22T03:43:05.695Z,38.45
2019-05-22T03:45:36.227Z,40.25
2019-05-22T03:48:06.461Z,39.60
2019-05-22T03:50:36.763Z,32.17
2019-05-22T03:53:15.668Z,36.60
2019-05-22T03:55:46.552Z,37.53
2019-05-22T03:58:16.929Z,36.17
2019-05-22T04:00:47.523Z,37.90
2019-05-22T04:03:17.833Z,35.30
2019-05-22T04:05:48.889Z,37.70
2019-05-22T04:08:20.220Z,35.83
2019-05-22T04:10:59.186Z,35.75
2019-05-22T04:13:29.057Z,48.10
2019-05-22T04:16:00.635Z,38.48
2019-05-22T04:18:30.960Z,36.88
2019-05-22T04:21:01.655Z,38.53
2019-05-22T04:23:31.529Z,38.98
2019-05-22T04:26:01.854Z,44.70
2019-05-22T04:28:31.982Z,43.98
2019-05-22T04:31:02.513Z,38.83
2019-05-22T04:33:32.668Z,42.20
2019-05-22T04:36:03.073Z,47.90
2019-05-22T04:38:33.411Z,45.80
2019-05-22T04:41:04.643Z,44.48
2019-05-22T04:43:35.287Z,46.75
2019-05-22T04:46:06.521Z,41.73
2019-05-22T04:48:36.519Z,40.00
2019-05-22T04:51:25.376Z,41.08
2019-05-22T04:53:56.686Z,47.13
2019-05-22T04:56:26.609Z,45.48
2019-05-22T04:58:57.129Z,55.10
2019-05-22T05:01:28.361Z,46.08
2019-05-22T05:03:58.923Z,43.90
2019-05-22T05:06:30.482Z,48.80
2019-05-22T05:09:00.431Z,40.73
2019-05-22T05:11:30.666Z,39.98
2019-05-22T05:14:00.535Z,41.98
2019-05-22T05:16:30.386Z,43.02
2019-05-22T05:19:00.748Z,44.90
2019-05-22T05:21:31.038Z,49.45
2019-05-22T05:24:00.958Z,42.48
2019-05-22T05:26:32.134Z,51.83
2019-05-22T05:29:02.130Z,49.70
2019-05-22T05:31:32.358Z,43.50
2019-05-22T05:34:08.630Z,47.90
2019-05-22T05:36:39.234Z,42.93
2019-05-22T05:39:34.039Z,51.23
2019-05-22T05:42:03.952Z,49.25
2019-05-22T05:44:35.638Z,56.90
2019-05-22T05:47:06.277Z,45.10
2019-05-22T05:49:36.126Z,49.55
2019-05-22T05:52:07.321Z,54.38
2019-05-22T05:54:37.914Z,50.75
2019-05-22T05:57:38.494Z,48.35
2019-05-22T06:00:11.341Z,43.98
2019-05-22T06:02:55.732Z,50.38
2019-05-22T06:05:13.157Z,48.52
2019-05-22T06:07:43.011Z,53.95
2019-05-22T06:10:29.838Z,55.15
2019-05-22T06:13:00.552Z,45.40
2019-05-22T06:15:47.622Z,57.95
2019-05-22T06:18:34.713Z,53.45
2019-05-22T06:21:06.266Z,59.05
2019-05-22T06:23:44.551Z,49.73
2019-05-22T06:26:18.266Z,60.10
2019-05-22T06:28:48.093Z,54.60
2019-05-22T06:31:44.178Z,60.65
2019-05-22T06:34:14.034Z,36.05
2019-05-22T06:36:44.253Z,53.68
2019-05-22T06:39:14.490Z,55.40
2019-05-22T06:41:45.413Z,45.70
2019-05-22T06:44:31.441Z,57.58
2019-05-22T06:47:01.609Z,52.13
2019-05-22T06:49:35.132Z,67.47
2019-05-22T06:52:06.149Z,68.87
2019-05-22T06:54:36.677Z,61.02
2019-05-22T06:57:09.010Z,65.72
2019-05-22T06:59:39.603Z,60.60
2019-05-22T07:02:10.449Z,58.73
2019-05-22T07:04:40.658Z,65.03
2019-05-22T07:07:12.542Z,55.40
2019-05-22T07:09:44.609Z,59.23
2019-05-22T07:12:15.736Z,62.58
2019-05-22T07:15:02.533Z,54.63
2019-05-22T07:17:32.694Z,56.88
2019-05-22T07:20:04.649Z,74.15
2019-05-22T07:22:34.907Z,60.08
2019-05-22T07:25:08.191Z,59.93
2019-05-22T07:30:07.971Z,63.35
2019-05-22T07:32:38.145Z,52.03
2019-05-22T07:35:08.581Z,63.28
2019-05-22T07:37:40.962Z,63.87
2019-05-22T07:40:11.258Z,61.92
2019-05-22T07:42:41.135Z,55.92
2019-05-22T07:45:11.374Z,62.75
2019-05-22T07:47:43.028Z,61.48
2019-05-22T07:50:13.441Z,62.15
2019-05-22T07:52:43.376Z,62.35
2019-05-22T07:55:13.667Z,70.17
2019-05-22T07:57:43.513Z,62.50
2019-05-22T08:00:13.701Z,64.77
2019-05-22T08:02:44.439Z,61.98
2019-05-22T08:05:14.830Z,58.85
2019-05-22T08:07:44.915Z,61.23
2019-05-22T08:10:15.962Z,61.18
2019-05-22T08:12:45.814Z,61.77
2019-05-22T08:15:16.239Z,55.90
2019-05-22T08:17:46.099Z,58.42
2019-05-22T08:20:15.965Z,56.98
2019-05-22T08:22:46.621Z,57.62
2019-05-22T08:25:16.571Z,53.17
2019-05-22T08:27:46.785Z,44.23
2019-05-22T08:30:17.110Z,49.55
2019-05-22T08:32:47.406Z,47.93
2019-05-22T08:35:17.290Z,46.53
2019-05-22T08:37:47.593Z,43.95
2019-05-22T08:40:19.412Z,47.10
2019-05-22T08:42:50.135Z,43.40
2019-05-22T08:45:21.637Z,41.42
2019-05-22T08:47:51.574Z,44.13
2019-05-22T08:50:24.057Z,47.70
2019-05-22T08:52:54.011Z,43.75
2019-05-22T08:55:25.630Z,44.42
2019-05-22T08:57:55.750Z,35.75
2019-05-22T09:00:27.048Z,33.60
2019-05-22T09:02:57.294Z,33.67
2019-05-22T09:05:27.174Z,42.27
2019-05-22T09:07:57.147Z,37.13
2019-05-22T09:10:27.141Z,36.70
2019-05-22T09:12:57.366Z,32.78
2019-05-22T09:15:28.787Z,37.20
2019-05-22T09:17:59.702Z,40.60
2019-05-22T09:20:30.344Z,32.98
2019-05-22T09:23:00.682Z,31.33
2019-05-22T09:25:31.606Z,27.67
2019-05-22T09:28:01.992Z,25.43
2019-05-22T09:30:31.929Z,22.02
2019-05-22T09:33:02.073Z,22.60
2019-05-22T09:35:32.602Z,18.65
2019-05-22T09:38:02.916Z,19.27
2019-05-22T09:40:33.439Z,18.62
2019-05-22T09:43:04.187Z,16.70
2019-05-22T09:45:34.286Z,15.48
2019-05-22T09:48:05.706Z,6.80
2019-05-22T09:50:37.086Z,11.73
2019-05-22T09:53:07.860Z,8.53
2019-05-22T09:55:37.842Z,12.40
2019-05-22T09:58:07.883Z,10.68
2019-05-22T10:00:38.070Z,8.03
2019-05-22T10:03:08.787Z,9.43
2019-05-22T10:05:38.808Z,13.05
2019-05-22T10:08:08.911Z,17.02
2019-05-22T10:10:39.142Z,12.45
2019-05-22T10:13:09.166Z,8.50
2019-05-22T10:15:39.019Z,11.53
2019-05-22T10:18:09.241Z,11.08
2019-05-22T10:20:39.541Z,13.58
2019-05-22T10:23:15.478Z,18.35
2019-05-22T10:25:41.754Z,15.70
2019-05-22T10:28:11.979Z,11.60
2019-05-22T10:30:41.825Z,14.07
2019-05-22T10:33:11.954Z,13.40
2019-05-22T10:35:41.917Z,15.65
2019-05-22T10:38:11.802Z,9.10
2019-05-22T10:40:41.658Z,16.15
2019-05-22T10:43:11.871Z,16.15
2019-05-22T10:45:42.189Z,14.65
2019-05-22T10:48:12.130Z,16.35
2019-05-22T10:50:42.006Z,13.35
2019-05-22T10:53:12.316Z,10.15
2019-05-22T10:55:42.565Z,16.80
2019-05-22T10:58:12.797Z,20.32
2019-05-22T11:00:42.711Z,20.68
2019-05-22T11:03:14.156Z,9.38
2019-05-22T11:05:45.998Z,10.23
2019-05-22T11:08:15.933Z,15.08
2019-05-22T11:10:46.307Z,11.93
2019-05-22T11:13:16.427Z,14.95
2019-05-22T11:15:46.354Z,17.25
2019-05-22T11:18:16.206Z,18.95
2019-05-22T11:20:46.078Z,14.03
2019-05-22T11:23:15.991Z,14.25
2019-05-22T11:25:45.866Z,15.08
2019-05-22T11:28:15.788Z,16.82
2019-05-22T11:30:45.727Z,15.93
2019-05-22T11:33:15.626Z,16.17
2019-05-22T11:35:45.721Z,14.65
2019-05-22T11:38:15.558Z,9.28
2019-05-22T11:40:45.753Z,12.43
2019-05-22T11:43:15.980Z,12.53
2019-05-22T11:45:45.999Z,12.90
2019-05-22T11:48:16.046Z,14.55
2019-05-22T11:50:46.469Z,15.23
2019-05-22T11:53:16.331Z,15.45
2019-05-22T11:55:46.693Z,9.38
2019-05-22T11:58:17.041Z,9.98
2019-05-22T12:00:47.419Z,12.15
2019-05-22T12:03:17.641Z,18.80
2019-05-22T12:05:48.086Z,14.20
2019-05-22T12:08:17.999Z,13.80
2019-05-22T12:10:48.117Z,10.82
2019-05-22T12:13:18.040Z,12.70
2019-05-22T12:15:47.961Z,9.75
2019-05-22T12:18:18.042Z,11.20
2019-05-22T12:20:48.157Z,13.00
2019-05-22T12:23:18.031Z,22.37
2019-05-22T12:25:47.884Z,16.10
2019-05-22T12:28:18.224Z,13.98
2019-05-22T12:30:48.071Z,10.82
2019-05-22T12:33:18.342Z,13.35
2019-05-22T12:35:49.402Z,16.75
2019-05-22T12:38:19.612Z,16.32
2019-05-22T12:40:50.245Z,13.32
2019-05-22T12:43:20.253Z,12.40
2019-05-22T12:45:50.297Z,12.47
2019-05-22T12:48:20.145Z,13.85
2019-05-22T12:50:50.475Z,15.58
2019-05-22T12:53:20.691Z,13.43
2019-05-22T12:55:50.551Z,14.13
2019-05-22T12:58:20.405Z,16.12
2019-05-22T13:00:50.703Z,12.10
2019-05-22T13:03:20.835Z,26.27
2019-05-22T13:05:51.823Z,13.32
2019-05-22T13:08:21.862Z,10.72
2019-05-22T13:10:53.220Z,16.55
2019-05-22T13:13:23.756Z,18.40
2019-05-22T13:15:54.064Z,14.53
2019-05-22T13:18:24.290Z,12.75
2019-05-22T13:20:54.228Z,16.00
2019-05-22T13:23:24.899Z,17.50
2019-05-22T13:25:55.109Z,19.35
2019-05-22T13:28:26.093Z,15.08
2019-05-22T13:30:56.615Z,14.20
2019-05-22T13:33:27.843Z,20.57
2019-05-22T13:35:57.971Z,24.30
2019-05-22T13:38:27.838Z,24.25
2019-05-22T13:40:57.785Z,16.62
2019-05-22T13:43:28.879Z,19.32
2019-05-22T13:45:58.802Z,18.70
2019-05-22T13:48:28.947Z,20.23
2019-05-22T13:50:59.849Z,20.05
2019-05-22T13:53:30.158Z,20.08
2019-05-22T13:56:00.785Z,19.10
2019-05-22T13:58:30.936Z,20.50
2019-05-22T14:01:00.783Z,18.62
2019-05-22T14:03:31.146Z,18.57
2019-05-22T14:06:01.593Z,18.85
2019-05-22T14:08:31.456Z,22.77
2019-05-22T14:11:01.483Z,18.30
2019-05-22T14:13:31.327Z,20.08
2019-05-22T14:16:01.188Z,19.23
2019-05-22T14:18:31.064Z,14.58
2019-05-22T14:21:01.010Z,18.45
2019-05-22T14:23:30.943Z,21.20
2019-05-22T14:26:00.869Z,20.35
2019-05-22T14:28:31.303Z,16.87
2019-05-22T14:31:01.163Z,14.40
2019-05-22T14:33:31.117Z,23.98
2019-05-22T14:36:02.386Z,13.60
2019-05-22T14:38:32.822Z,17.27
2019-05-22T14:41:03.056Z,19.82
2019-05-22T14:43:32.931Z,19.02
2019-05-22T14:46:03.061Z,12.53
2019-05-22T14:48:33.772Z,13.72
2019-05-22T14:51:04.114Z,15.35
2019-05-22T14:53:35.028Z,16.30
2019-05-22T14:56:10.577Z,15.43
2019-05-22T14:58:39.273Z,16.10
2019-05-22T15:01:10.098Z,15.23
2019-05-22T15:03:40.575Z,17.77
2019-05-22T15:06:10.465Z,15.58
2019-05-22T15:08:40.322Z,14.87
2019-05-22T15:11:10.293Z,15.18
2019-05-22T15:13:40.479Z,13.72
2019-05-22T15:16:10.371Z,18.82
2019-05-22T15:18:40.353Z,16.20
2019-05-22T15:21:11.846Z,21.10
2019-05-22T15:23:42.084Z,17.87
2019-05-22T15:26:11.990Z,20.35
2019-05-22T15:28:42.026Z,23.15
2019-05-22T15:31:11.913Z,17.20
2019-05-22T15:33:42.220Z,17.80
2019-05-22T15:36:14.317Z,23.30
2019-05-22T15:38:44.470Z,18.95
2019-05-22T15:41:15.046Z,18.42
2019-05-22T15:43:51.244Z,13.38
2019-05-22T15:46:17.422Z,17.43
2019-05-22T15:48:48.050Z,16.27
2019-05-22T15:51:21.313Z,12.43
2019-05-22T15:56:20.521Z,13.08
2019-05-22T15:58:51.396Z,16.60
2019-05-22T16:01:21.981Z,12.45
2019-05-22T16:03:51.910Z,13.93
2019-05-22T16:06:23.566Z,14.28
2019-05-22T16:08:53.486Z,14.55
2019-05-22T16:11:23.641Z,11.88
2019-05-22T16:13:54.477Z,18.65
2019-05-22T16:16:24.931Z,18.17
2019-05-22T16:18:55.166Z,12.70
2019-05-22T16:21:26.076Z,10.58
2019-05-22T16:23:57.096Z,17.02
2019-05-22T16:26:27.611Z,15.63
2019-05-22T16:28:57.467Z,16.75
2019-05-22T16:31:27.335Z,14.15
2019-05-22T16:33:57.195Z,12.68
2019-05-22T16:36:27.391Z,12.43
2019-05-22T16:38:57.335Z,18.77
2019-05-22T16:41:27.645Z,15.43
2019-05-22T16:43:57.535Z,12.63
2019-05-22T16:46:28.059Z,12.40
2019-05-22T16:48:58.329Z,14.53
2019-05-22T16:51:28.921Z,12.47
2019-05-22T16:54:02.040Z,13.00
2019-05-22T16:56:32.171Z,16.90
2019-05-22T16:59:02.399Z,20.15
2019-05-22T17:01:32.468Z,16.52
2019-05-22T17:04:03.125Z,14.05
2019-05-22T17:06:33.542Z,12.25
2019-05-22T17:09:05.306Z,13.60
2019-05-22T17:11:35.339Z,12.93
2019-05-22T17:14:06.930Z,13.78
2019-05-22T17:16:39.199Z,18.23
2019-05-22T17:19:25.794Z,10.65
2019-05-22T17:21:40.646Z,13.88
2019-05-22T17:24:10.718Z,16.65
2019-05-22T17:26:41.052Z,9.85
2019-05-22T17:29:11.170Z,12.65
2019-05-22T17:31:41.605Z,15.23
2019-05-22T17:34:29.745Z,22.07
2019-05-22T17:36:59.678Z,15.55
2019-05-22T17:39:31.510Z,13.35
2019-05-22T17:42:01.905Z,18.42
2019-05-22T17:44:32.573Z,10.18
2019-05-22T17:47:06.189Z,11.08
2019-05-22T17:49:34.815Z,10.88
2019-05-22T17:52:05.448Z,11.90
2019-05-22T17:54:35.333Z,16.90
2019-05-22T17:57:05.568Z,12.98
2019-05-22T17:59:36.502Z,9.88
2019-05-22T18:02:07.994Z,11.68
2019-05-22T18:04:38.211Z,10.70
2019-05-22T18:07:08.934Z,11.12
2019-05-22T18:09:38.791Z,9.03
2019-05-22T18:12:08.911Z,11.45
2019-05-22T18:14:38.893Z,8.48
2019-05-22T18:17:09.017Z,4.12
2019-05-22T18:19:38.862Z,7.85
2019-05-22T18:22:10.417Z,3.95
2019-05-22T18:24:40.642Z,5.97
2019-05-22T18:27:10.479Z,3.65
2019-05-22T18:29:40.769Z,6.90
2019-05-22T18:32:11.576Z,4.17
2019-05-22T18:34:41.821Z,5.45
2019-05-22T18:37:11.662Z,5.65
2019-05-22T18:39:41.578Z,4.00
2019-05-22T18:42:12.817Z,2.50
2019-05-22T18:44:43.024Z,3.12
2019-05-22T18:47:12.871Z,7.60
2019-05-22T18:49:42.723Z,4.95
2019-05-22T18:52:12.751Z,6.15
2019-05-22T18:54:42.594Z,8.13
2019-05-22T18:57:12.802Z,4.85
2019-05-22T18:59:42.735Z,7.72
2019-05-22T19:02:14.063Z,4.40
2019-05-22T19:04:44.007Z,8.80
2019-05-22T19:07:14.913Z,4.30
2019-05-22T19:09:44.776Z,4.83
2019-05-22T19:12:14.952Z,8.50
2019-05-22T19:14:45.176Z,3.75
2019-05-22T19:17:15.332Z,4.62
2019-05-22T19:19:46.139Z,4.75
2019-05-22T19:22:16.759Z,3.98
2019-05-22T19:24:46.983Z,5.17
2019-05-22T19:27:16.856Z,3.83
2019-05-22T19:29:46.784Z,5.22
2019-05-22T19:32:17.343Z,3.08
2019-05-22T19:34:47.217Z,3.52
2019-05-22T19:37:17.130Z,4.15
2019-05-22T19:39:47.399Z,4.33
2019-05-22T19:42:17.473Z,4.03
2019-05-22T19:44:47.336Z,3.15
2019-05-22T19:47:17.468Z,4.75
2019-05-22T19:49:47.502Z,3.58
2019-05-22T19:52:22.060Z,4.67
2019-05-22T19:54:50.317Z,5.65
2019-05-22T19:57:20.418Z,6.15
2019-05-22T19:59:50.275Z,6.58
2019-05-22T20:02:20.250Z,7.30
2019-05-22T20:04:50.157Z,7.83
2019-05-22T20:07:21.855Z,5.47
2019-05-22T20:09:52.300Z,6.62
2019-05-22T20:12:25.002Z,4.58
2019-05-22T20:14:54.307Z,8.75
2019-05-22T20:17:25.360Z,7.35
2019-05-22T20:19:56.264Z,7.58
2019-05-22T20:22:26.999Z,8.70
2019-05-22T20:24:57.814Z,7.80
2019-05-22T20:27:28.157Z,8.23
2019-05-22T20:29:58.002Z,9.18
2019-05-22T20:32:28.325Z,7.20
2019-05-22T20:34:58.238Z,10.40
2019-05-22T20:37:28.171Z,8.45
2019-05-22T20:39:58.026Z,10.28
2019-05-22T20:42:28.469Z,8.85
2019-05-22T20:44:58.691Z,12.05
2019-05-22T20:47:29.538Z,9.03
2019-05-22T20:50:00.274Z,9.40
2019-05-22T20:52:30.868Z,8.20
2019-05-22T20:55:02.381Z,11.95
2019-05-22T20:57:34.003Z,8.53
2019-05-22T21:00:10.070Z,9.83
2019-05-22T21:02:40.423Z,15.23
2019-05-22T21:05:12.039Z,13.75
2019-05-22T21:07:46.394Z,19.00
2019-05-22T21:10:16.597Z,10.48
2019-05-22T21:12:46.518Z,12.98
2019-05-22T21:15:17.124Z,20.88
2019-05-22T21:17:47.005Z,12.28
2019-05-22T21:20:18.490Z,13.58
2019-05-22T21:22:49.044Z,14.25
2019-05-22T21:25:19.565Z,14.83
2019-05-22T21:27:49.710Z,16.52
2019-05-22T21:30:20.327Z,14.40
2019-05-22T21:32:50.199Z,18.48
2019-05-22T21:35:21.725Z,13.00
2019-05-22T21:37:51.975Z,11.05
2019-05-22T21:40:22.503Z,14.80
2019-05-22T21:42:52.345Z,13.13
2019-05-22T21:45:23.275Z,17.12
2019-05-22T21:47:53.327Z,12.73
2019-05-22T21:50:23.846Z,13.72
2019-05-22T21:52:53.724Z,20.40
2019-05-22T21:55:24.749Z,16.67
2019-05-22T21:57:54.610Z,13.50
2019-05-22T22:00:41.573Z,13.70
2019-05-22T22:03:13.218Z,16.05
2019-05-22T22:05:45.246Z,28.65
2019-05-22T22:08:15.469Z,26.48
2019-05-22T22:10:45.346Z,28.02
2019-05-22T22:13:15.578Z,24.35
2019-05-22T22:15:46.531Z,25.37
2019-05-22T22:18:18.029Z,22.00
2019-05-22T22:20:48.178Z,23.20
2019-05-22T22:23:19.126Z,28.17
2019-05-22T22:25:50.371Z,25.20
2019-05-22T22:28:20.785Z,19.32
2019-05-22T22:30:52.327Z,19.07
2019-05-22T22:33:25.610Z,22.85
2019-05-22T22:38:28.913Z,22.00
2019-05-22T22:40:59.362Z,20.27
2019-05-22T22:43:31.294Z,21.70
2019-05-22T22:46:09.093Z,16.95
2019-05-22T22:48:40.281Z,18.30
2019-05-22T22:51:12.709Z,16.57
2019-05-22T22:53:43.767Z,22.22
2019-05-22T22:56:14.139Z,20.23
2019-05-22T22:58:44.849Z,21.02
2019-05-22T23:01:25.703Z,20.48
2019-05-22T23:03:56.801Z,16.93
2019-05-22T23:06:28.530Z,20.75
2019-05-22T23:08:58.472Z,26.87
2019-05-22T23:11:28.703Z,19.27
2019-05-22T23:13:59.101Z,26.07
2019-05-22T23:16:29.049Z,19.50
2019-05-22T23:19:15.935Z,18.50
2019-05-22T23:21:46.540Z,20.23
2019-05-22T23:24:16.772Z,18.98
2019-05-22T23:26:47.606Z,23.60
2019-05-22T23:29:18.150Z,17.52
2019-05-22T23:31:48.684Z,16.05
2019-05-22T23:34:19.111Z,17.30
2019-05-22T23:36:49.476Z,17.17
2019-05-22T23:39:20.967Z,17.73
2019-05-22T23:41:51.928Z,20.80
2019-05-22T23:44:23.455Z,17.12
2019-05-22T23:46:54.007Z,16.77
2019-05-22T23:49:24.767Z,17.95
2019-05-22T23:51:54.614Z,14.90
2019-05-22T23:54:24.470Z,12.43
2019-05-22T23:56:54.404Z,14.63
2019-05-22T23:59:24.250Z,13.68
